sensor_id;sensor_type;location;lat;lon;timestamp;temperature;humidity
61374;DHT22;47242;48.158;-1.586;2022-12-10T05:30:06;0.30;76.10
61374;DHT22;47242;48.158;-1.586;2022-12-10T05:32:33;0.40;76.10
61374;DHT22;47242;48.158;-1.586;2022-12-10T05:34:58;0.30;75.90
61374;DHT22;47242;48.158;-1.586;2022-12-10T05:37:24;0.20;75.90
61374;DHT22;47242;48.158;-1.586;2022-12-10T05:39:50;0.30;75.90
61374;DHT22;47242;48.158;-1.586;2022-12-10T05:42:15;0.20;75.90
61374;DHT22;47242;48.158;-1.586;2022-12-10T05:44:41;0.20;75.70
61374;DHT22;47242;48.158;-1.586;2022-12-10T05:47:06;0.20;75.80
61374;DHT22;47242;48.158;-1.586;2022-12-10T05:49:32;0.20;76.00
61374;DHT22;47242;48.158;-1.586;2022-12-10T05:51:58;0.20;76.10
61374;DHT22;47242;48.158;-1.586;2022-12-10T05:54:23;0.20;76.10
61374;DHT22;47242;48.158;-1.586;2022-12-10T05:56:49;0.20;76.10
61374;DHT22;47242;48.158;-1.586;2022-12-10T05:59:15;0.30;76.10
61374;DHT22;47242;48.158;-1.586;2022-12-10T06:01:40;0.20;76.00
61374;DHT22;47242;48.158;-1.586;2022-12-10T06:04:06;0.20;76.10
61374;DHT22;47242;48.158;-1.586;2022-12-10T06:06:35;0.20;76.40
61374;DHT22;47242;48.158;-1.586;2022-12-10T06:09:02;0.20;76.40
61374;DHT22;47242;48.158;-1.586;2022-12-10T06:11:28;0.20;76.50
61374;DHT22;47242;48.158;-1.586;2022-12-10T06:13:56;0.20;76.60
61374;DHT22;47242;48.158;-1.586;2022-12-10T06:16:23;0.20;76.50
61374;DHT22;47242;48.158;-1.586;2022-12-10T06:18:49;0.20;76.40
61374;DHT22;47242;48.158;-1.586;2022-12-10T06:21:15;0.20;76.40
61374;DHT22;47242;48.158;-1.586;2022-12-10T06:23:42;0.20;75.90
61374;DHT22;47242;48.158;-1.586;2022-12-10T06:26:13;0.10;75.70
61374;DHT22;47242;48.158;-1.586;2022-12-10T06:28:39;0.10;75.40
61374;DHT22;47242;48.158;-1.586;2022-12-10T06:31:05;0.10;75.30
61374;DHT22;47242;48.158;-1.586;2022-12-10T06:33:31;0.00;74.80
61374;DHT22;47242;48.158;-1.586;2022-12-10T06:35:57;0.10;75.10
61374;DHT22;47242;48.158;-1.586;2022-12-10T06:38:23;0.00;74.90
61374;DHT22;47242;48.158;-1.586;2022-12-10T06:40:49;0.10;75.10
61374;DHT22;47242;48.158;-1.586;2022-12-10T06:43:15;0.10;74.90
61374;DHT22;47242;48.158;-1.586;2022-12-10T06:45:41;0.10;75.10
61374;DHT22;47242;48.158;-1.586;2022-12-10T06:48:08;0.10;75.10
61374;DHT22;47242;48.158;-1.586;2022-12-10T06:50:34;0.10;75.40
61374;DHT22;47242;48.158;-1.586;2022-12-10T06:53:00;0.10;75.20
61374;DHT22;47242;48.158;-1.586;2022-12-10T06:55:25;0.00;75.30
61374;DHT22;47242;48.158;-1.586;2022-12-10T06:57:52;0.00;75.70
61374;DHT22;47242;48.158;-1.586;2022-12-10T07:00:18;0.00;76.00
61374;DHT22;47242;48.158;-1.586;2022-12-10T07:02:44;0.00;76.10
61374;DHT22;47242;48.158;-1.586;2022-12-10T07:05:09;0.10;75.70
61374;DHT22;47242;48.158;-1.586;2022-12-10T07:07:36;0.10;75.70
61374;DHT22;47242;48.158;-1.586;2022-12-10T07:10:02;0.10;75.80
61374;DHT22;47242;48.158;-1.586;2022-12-10T07:12:27;0.10;76.00
61374;DHT22;47242;48.158;-1.586;2022-12-10T07:14:53;0.10;76.10
61374;DHT22;47242;48.158;-1.586;2022-12-10T07:17:19;0.10;75.80
61374;DHT22;47242;48.158;-1.586;2022-12-10T07:19:44;0.00;75.80
61374;DHT22;47242;48.158;-1.586;2022-12-10T07:22:10;0.00;75.50
61374;DHT22;47242;48.158;-1.586;2022-12-10T07:24:36;0.00;75.60
61374;DHT22;47242;48.158;-1.586;2022-12-10T07:27:05;0.00;75.50
61374;DHT22;47242;48.158;-1.586;2022-12-10T07:29:31;0.00;75.50
61374;DHT22;47242;48.158;-1.586;2022-12-10T07:31:57;0.00;75.70
61374;DHT22;47242;48.158;-1.586;2022-12-10T07:34:22;0.00;75.70
61374;DHT22;47242;48.158;-1.586;2022-12-10T07:36:48;0.00;75.50
61374;DHT22;47242;48.158;-1.586;2022-12-10T07:39:14;0.00;75.50
61374;DHT22;47242;48.158;-1.586;2022-12-10T07:41:52;0.00;75.60
61374;DHT22;47242;48.158;-1.586;2022-12-10T07:44:23;0.00;75.50
61374;DHT22;47242;48.158;-1.586;2022-12-10T07:46:51;0.00;75.50
61374;DHT22;47242;48.158;-1.586;2022-12-10T07:49:18;0.00;75.00
61374;DHT22;47242;48.158;-1.586;2022-12-10T07:51:47;0.00;75.30
61374;DHT22;47242;48.158;-1.586;2022-12-10T07:54:13;0.00;75.30
61374;DHT22;47242;48.158;-1.586;2022-12-10T07:56:39;0.00;75.30
61374;DHT22;47242;48.158;-1.586;2022-12-10T07:59:04;0.00;75.20
61374;DHT22;47242;48.158;-1.586;2022-12-10T08:01:30;0.00;75.30
61374;DHT22;47242;48.158;-1.586;2022-12-10T08:03:56;0.00;75.10
61374;DHT22;47242;48.158;-1.586;2022-12-10T08:06:23;0.00;75.30
61374;DHT22;47242;48.158;-1.586;2022-12-10T08:08:50;0.00;75.10
61374;DHT22;47242;48.158;-1.586;2022-12-10T08:11:17;0.00;75.00
61374;DHT22;47242;48.158;-1.586;2022-12-10T08:13:43;0.00;74.80
61374;DHT22;47242;48.158;-1.586;2022-12-10T08:16:19;0.00;74.70
61374;DHT22;47242;48.158;-1.586;2022-12-10T08:18:45;0.00;75.20
61374;DHT22;47242;48.158;-1.586;2022-12-10T08:21:16;0.10;74.90
61374;DHT22;47242;48.158;-1.586;2022-12-10T08:23:43;0.10;75.00
61374;DHT22;47242;48.158;-1.586;2022-12-10T08:26:11;0.10;75.00
61374;DHT22;47242;48.158;-1.586;2022-12-10T08:28:37;0.10;75.20
61374;DHT22;47242;48.158;-1.586;2022-12-10T08:31:04;0.20;75.10
61374;DHT22;47242;48.158;-1.586;2022-12-10T08:33:32;0.20;75.20
61374;DHT22;47242;48.158;-1.586;2022-12-10T08:36:00;0.20;75.30
61374;DHT22;47242;48.158;-1.586;2022-12-10T08:38:27;0.20;75.30
61374;DHT22;47242;48.158;-1.586;2022-12-10T08:40:52;0.30;75.40
61374;DHT22;47242;48.158;-1.586;2022-12-10T08:43:18;0.30;75.50
61374;DHT22;47242;48.158;-1.586;2022-12-10T08:45:44;0.30;75.30
61374;DHT22;47242;48.158;-1.586;2022-12-10T08:48:09;0.30;75.70
61374;DHT22;47242;48.158;-1.586;2022-12-10T08:50:37;0.40;75.70
61374;DHT22;47242;48.158;-1.586;2022-12-10T08:53:02;0.40;75.60
61374;DHT22;47242;48.158;-1.586;2022-12-10T08:55:28;0.50;75.80
61374;DHT22;47242;48.158;-1.586;2022-12-10T08:57:54;0.50;76.20
61374;DHT22;47242;48.158;-1.586;2022-12-10T09:00:21;0.50;76.30
61374;DHT22;47242;48.158;-1.586;2022-12-10T09:02:46;0.50;76.50
61374;DHT22;47242;48.158;-1.586;2022-12-10T09:05:12;0.50;76.60
61374;DHT22;47242;48.158;-1.586;2022-12-10T09:07:38;0.50;76.60
61374;DHT22;47242;48.158;-1.586;2022-12-10T09:10:04;0.40;77.20
61374;DHT22;47242;48.158;-1.586;2022-12-10T09:12:32;0.50;77.40
61374;DHT22;47242;48.158;-1.586;2022-12-10T09:14:57;0.60;77.60
61374;DHT22;47242;48.158;-1.586;2022-12-10T09:17:23;0.70;76.90
61374;DHT22;47242;48.158;-1.586;2022-12-10T09:19:49;0.70;76.40
61374;DHT22;47242;48.158;-1.586;2022-12-10T09:22:14;0.70;76.20
61374;DHT22;47242;48.158;-1.586;2022-12-10T09:24:40;0.80;76.30
61374;DHT22;47242;48.158;-1.586;2022-12-10T09:27:06;0.80;76.10
61374;DHT22;47242;48.158;-1.586;2022-12-10T09:29:31;0.90;76.30
61374;DHT22;47242;48.158;-1.586;2022-12-10T09:31:57;0.90;76.30
61374;DHT22;47242;48.158;-1.586;2022-12-10T09:34:22;0.90;76.30
61374;DHT22;47242;48.158;-1.586;2022-12-10T09:36:48;1.00;76.20
61374;DHT22;47242;48.158;-1.586;2022-12-10T09:39:14;1.00;76.30
61374;DHT22;47242;48.158;-1.586;2022-12-10T09:41:52;1.10;76.20
61374;DHT22;47242;48.158;-1.586;2022-12-10T09:47:17;1.20;76.20
61374;DHT22;47242;48.158;-1.586;2022-12-10T09:50:06;1.20;76.20
61374;DHT22;47242;48.158;-1.586;2022-12-10T09:52:41;1.30;76.50
61374;DHT22;47242;48.158;-1.586;2022-12-10T09:55:57;1.40;76.80
61374;DHT22;47242;48.158;-1.586;2022-12-10T09:57:58;1.50;76.60
61374;DHT22;47242;48.158;-1.586;2022-12-10T10:00:40;1.60;76.40
61374;DHT22;47242;48.158;-1.586;2022-12-10T10:03:09;1.60;76.90
61374;DHT22;47242;48.158;-1.586;2022-12-10T10:05:41;1.70;76.70
61374;DHT22;47242;48.158;-1.586;2022-12-10T10:10:55;1.70;76.90
61374;DHT22;47242;48.158;-1.586;2022-12-10T10:13:36;1.70;76.70
61374;DHT22;47242;48.158;-1.586;2022-12-10T10:16:26;1.80;76.90
61374;DHT22;47242;48.158;-1.586;2022-12-10T10:18:58;1.80;77.00
61374;DHT22;47242;48.158;-1.586;2022-12-10T10:21:35;1.90;77.10
61374;DHT22;47242;48.158;-1.586;2022-12-10T10:24:03;2.00;77.00
61374;DHT22;47242;48.158;-1.586;2022-12-10T10:26:29;2.00;77.00
61374;DHT22;47242;48.158;-1.586;2022-12-10T10:29:04;2.20;77.30
61374;DHT22;47242;48.158;-1.586;2022-12-10T10:31:32;2.10;77.40
61374;DHT22;47242;48.158;-1.586;2022-12-10T10:34:01;2.20;77.30
61374;DHT22;47242;48.158;-1.586;2022-12-10T10:36:32;2.20;77.50
61374;DHT22;47242;48.158;-1.586;2022-12-10T10:39:29;2.20;77.50
61374;DHT22;47242;48.158;-1.586;2022-12-10T10:41:57;2.20;77.60
61374;DHT22;47242;48.158;-1.586;2022-12-10T10:44:35;2.30;77.40
61374;DHT22;47242;48.158;-1.586;2022-12-10T10:47:02;2.40;77.30
61374;DHT22;47242;48.158;-1.586;2022-12-10T10:49:30;2.50;77.30
61374;DHT22;47242;48.158;-1.586;2022-12-10T10:52:05;2.60;77.50
61374;DHT22;47242;48.158;-1.586;2022-12-10T10:57:24;2.60;77.50
61374;DHT22;47242;48.158;-1.586;2022-12-10T10:59:55;2.70;77.60
61374;DHT22;47242;48.158;-1.586;2022-12-10T11:02:29;2.70;77.80
61374;DHT22;47242;48.158;-1.586;2022-12-10T11:04:56;2.70;78.10
61374;DHT22;47242;48.158;-1.586;2022-12-10T11:10:02;2.70;78.20
61374;DHT22;47242;48.158;-1.586;2022-12-10T11:12:35;2.70;78.20
61374;DHT22;47242;48.158;-1.586;2022-12-10T11:15:01;2.70;78.00
61374;DHT22;47242;48.158;-1.586;2022-12-10T11:17:27;2.80;77.80
61374;DHT22;47242;48.158;-1.586;2022-12-10T11:20:18;2.90;77.90
61374;DHT22;47242;48.158;-1.586;2022-12-10T11:22:55;2.90;77.60
61374;DHT22;47242;48.158;-1.586;2022-12-10T11:25:38;2.90;77.70
61374;DHT22;47242;48.158;-1.586;2022-12-10T11:28:23;3.00;77.70
61374;DHT22;47242;48.158;-1.586;2022-12-10T11:31:11;3.10;77.90
61374;DHT22;47242;48.158;-1.586;2022-12-10T11:41:56;3.20;77.80
61374;DHT22;47242;48.158;-1.586;2022-12-10T11:52:40;3.40;78.20
61374;DHT22;47242;48.158;-1.586;2022-12-10T12:07:07;3.70;78.20
61374;DHT22;47242;48.158;-1.586;2022-12-10T12:14:55;3.80;78.00
61374;DHT22;47242;48.158;-1.586;2022-12-10T12:17:26;3.90;77.90
61374;DHT22;47242;48.158;-1.586;2022-12-10T12:20:37;3.90;77.60
61374;DHT22;47242;48.158;-1.586;2022-12-10T12:22:45;4.00;77.60
61374;DHT22;47242;48.158;-1.586;2022-12-10T12:25:22;4.10;77.50
61374;DHT22;47242;48.158;-1.586;2022-12-10T12:27:53;4.10;77.40
61374;DHT22;47242;48.158;-1.586;2022-12-10T12:30:22;4.20;77.30
61374;DHT22;47242;48.158;-1.586;2022-12-10T12:33:05;4.20;77.30
61374;DHT22;47242;48.158;-1.586;2022-12-10T12:41:21;4.30;77.00
61374;DHT22;47242;48.158;-1.586;2022-12-10T12:44:13;4.40;76.70
61374;DHT22;47242;48.158;-1.586;2022-12-10T12:46:44;4.50;76.20
61374;DHT22;47242;48.158;-1.586;2022-12-10T12:49:17;4.50;76.10
61374;DHT22;47242;48.158;-1.586;2022-12-10T12:51:51;4.50;76.00
61374;DHT22;47242;48.158;-1.586;2022-12-10T12:54:17;4.60;76.00
61374;DHT22;47242;48.158;-1.586;2022-12-10T12:57:18;4.60;75.90
61374;DHT22;47242;48.158;-1.586;2022-12-10T13:00:04;4.70;75.70
61374;DHT22;47242;48.158;-1.586;2022-12-10T13:04:56;4.80;75.40
61374;DHT22;47242;48.158;-1.586;2022-12-10T13:09:50;4.80;74.50
61374;DHT22;47242;48.158;-1.586;2022-12-10T13:12:29;5.00;73.60
61374;DHT22;47242;48.158;-1.586;2022-12-10T13:15:03;5.00;73.20
61374;DHT22;47242;48.158;-1.586;2022-12-10T13:17:38;5.10;72.60
61374;DHT22;47242;48.158;-1.586;2022-12-10T13:25:40;5.20;71.90
61374;DHT22;47242;48.158;-1.586;2022-12-10T13:36:13;5.40;70.90
61374;DHT22;47242;48.158;-1.586;2022-12-10T13:45:16;5.50;69.80
61374;DHT22;47242;48.158;-1.586;2022-12-10T13:53:24;5.60;69.60
61374;DHT22;47242;48.158;-1.586;2022-12-10T13:58:50;5.60;69.50
61374;DHT22;47242;48.158;-1.586;2022-12-10T14:01:30;5.60;69.20
61374;DHT22;47242;48.158;-1.586;2022-12-10T14:04:15;5.60;69.30
61374;DHT22;47242;48.158;-1.586;2022-12-10T14:06:44;5.50;69.30
61374;DHT22;47242;48.158;-1.586;2022-12-10T14:09:20;5.60;69.30
61374;DHT22;47242;48.158;-1.586;2022-12-10T14:11:54;5.60;67.70
61374;DHT22;47242;48.158;-1.586;2022-12-10T14:14:35;5.60;67.10
61374;DHT22;47242;48.158;-1.586;2022-12-10T14:17:06;5.60;66.80
61374;DHT22;47242;48.158;-1.586;2022-12-10T14:19:36;5.60;67.30
61374;DHT22;47242;48.158;-1.586;2022-12-10T14:22:18;5.50;67.40
61374;DHT22;47242;48.158;-1.586;2022-12-10T14:24:48;5.40;68.20
61374;DHT22;47242;48.158;-1.586;2022-12-10T14:27:17;5.40;69.00
61374;DHT22;47242;48.158;-1.586;2022-12-10T14:29:48;5.40;68.90
61374;DHT22;47242;48.158;-1.586;2022-12-10T14:32:16;5.40;69.30
61374;DHT22;47242;48.158;-1.586;2022-12-10T14:34:45;5.30;69.30
61374;DHT22;47242;48.158;-1.586;2022-12-10T14:37:13;5.30;69.70
61374;DHT22;47242;48.158;-1.586;2022-12-10T14:39:40;5.30;70.10
61374;DHT22;47242;48.158;-1.586;2022-12-10T14:42:06;5.30;70.20
61374;DHT22;47242;48.158;-1.586;2022-12-10T14:44:39;5.30;70.10
61374;DHT22;47242;48.158;-1.586;2022-12-10T14:47:15;5.30;70.20
61374;DHT22;47242;48.158;-1.586;2022-12-10T14:49:44;5.20;69.90
61374;DHT22;47242;48.158;-1.586;2022-12-10T14:52:16;5.30;69.70
61374;DHT22;47242;48.158;-1.586;2022-12-10T14:54:43;5.30;69.50
61374;DHT22;47242;48.158;-1.586;2022-12-10T14:57:24;5.30;69.40
61374;DHT22;47242;48.158;-1.586;2022-12-10T15:00:14;5.20;69.60
61374;DHT22;47242;48.158;-1.586;2022-12-10T15:02:45;5.20;69.60
61374;DHT22;47242;48.158;-1.586;2022-12-10T15:05:17;5.20;69.60
61374;DHT22;47242;48.158;-1.586;2022-12-10T15:07:58;5.20;69.50
61374;DHT22;47242;48.158;-1.586;2022-12-10T15:10:28;5.20;69.70
61374;DHT22;47242;48.158;-1.586;2022-12-10T15:12:57;5.20;69.50
61374;DHT22;47242;48.158;-1.586;2022-12-10T15:15:39;5.20;69.70
61374;DHT22;47242;48.158;-1.586;2022-12-10T15:18:11;5.20;69.70
61374;DHT22;47242;48.158;-1.586;2022-12-10T15:20:48;5.20;69.90
61374;DHT22;47242;48.158;-1.586;2022-12-10T15:28:37;5.00;70.20
61374;DHT22;47242;48.158;-1.586;2022-12-10T15:31:33;5.00;70.40
61374;DHT22;47242;48.158;-1.586;2022-12-10T15:34:01;4.90;70.60
61374;DHT22;47242;48.158;-1.586;2022-12-10T15:39:24;4.90;70.50
61374;DHT22;47242;48.158;-1.586;2022-12-10T15:41:55;4.80;70.70
61374;DHT22;47242;48.158;-1.586;2022-12-10T15:47:01;4.70;71.00
61374;DHT22;47242;48.158;-1.586;2022-12-10T15:49:29;4.60;71.10
61374;DHT22;47242;48.158;-1.586;2022-12-10T15:51:55;4.50;71.40
61374;DHT22;47242;48.158;-1.586;2022-12-10T15:54:38;4.50;71.60
61374;DHT22;47242;48.158;-1.586;2022-12-10T15:57:22;4.30;71.80
61374;DHT22;47242;48.158;-1.586;2022-12-10T15:59:52;4.30;71.80
61374;DHT22;47242;48.158;-1.586;2022-12-10T16:05:00;4.20;72.30
61374;DHT22;47242;48.158;-1.586;2022-12-10T16:07:26;4.20;72.50
61374;DHT22;47242;48.158;-1.586;2022-12-10T16:09:52;4.20;72.50
61374;DHT22;47242;48.158;-1.586;2022-12-10T16:12:18;4.20;72.80
61374;DHT22;47242;48.158;-1.586;2022-12-10T16:14:51;4.20;72.90
61374;DHT22;47242;48.158;-1.586;2022-12-10T16:17:18;4.10;73.20
61374;DHT22;47242;48.158;-1.586;2022-12-10T16:19:44;4.10;73.20
61374;DHT22;47242;48.158;-1.586;2022-12-10T16:22:10;4.00;73.30
61374;DHT22;47242;48.158;-1.586;2022-12-10T16:24:35;3.90;73.30
61374;DHT22;47242;48.158;-1.586;2022-12-10T16:27:01;3.90;73.80
61374;DHT22;47242;48.158;-1.586;2022-12-10T16:29:29;3.90;74.10
61374;DHT22;47242;48.158;-1.586;2022-12-10T16:31:55;3.90;74.40
61374;DHT22;47242;48.158;-1.586;2022-12-10T16:34:20;3.90;74.40
61374;DHT22;47242;48.158;-1.586;2022-12-10T16:36:46;3.90;74.50
61374;DHT22;47242;48.158;-1.586;2022-12-10T16:39:11;3.90;74.70
61374;DHT22;47242;48.158;-1.586;2022-12-10T16:41:39;3.90;74.70
61374;DHT22;47242;48.158;-1.586;2022-12-10T16:44:05;3.90;74.60
61374;DHT22;47242;48.158;-1.586;2022-12-10T16:46:33;3.80;74.60
61374;DHT22;47242;48.158;-1.586;2022-12-10T16:49:01;3.80;74.70
61374;DHT22;47242;48.158;-1.586;2022-12-10T16:51:28;3.80;74.90
61374;DHT22;47242;48.158;-1.586;2022-12-10T16:53:55;3.70;75.00
61374;DHT22;47242;48.158;-1.586;2022-12-10T16:56:21;3.70;75.00
61374;DHT22;47242;48.158;-1.586;2022-12-10T16:58:47;3.70;75.20
61374;DHT22;47242;48.158;-1.586;2022-12-10T17:01:22;3.70;75.20
61374;DHT22;47242;48.158;-1.586;2022-12-10T17:03:51;3.70;75.30
61374;DHT22;47242;48.158;-1.586;2022-12-10T17:06:17;3.60;75.40
61374;DHT22;47242;48.158;-1.586;2022-12-10T17:08:43;3.60;75.50
61374;DHT22;47242;48.158;-1.586;2022-12-10T17:14:05;3.60;75.80
61374;DHT22;47242;48.158;-1.586;2022-12-10T17:16:31;3.50;76.00
61374;DHT22;47242;48.158;-1.586;2022-12-10T17:18:57;3.50;76.20
61374;DHT22;47242;48.158;-1.586;2022-12-10T17:21:23;3.50;76.40
61374;DHT22;47242;48.158;-1.586;2022-12-10T17:23:49;3.50;76.80
61374;DHT22;47242;48.158;-1.586;2022-12-10T17:26:29;3.50;76.70
61374;DHT22;47242;48.158;-1.586;2022-12-10T17:29:17;3.40;76.50
61374;DHT22;47242;48.158;-1.586;2022-12-10T17:31:44;3.40;76.60
61374;DHT22;47242;48.158;-1.586;2022-12-10T17:34:11;3.40;76.90
61374;DHT22;47242;48.158;-1.586;2022-12-10T17:36:39;3.30;77.20
61374;DHT22;47242;48.158;-1.586;2022-12-10T17:39:05;3.30;77.60
61374;DHT22;47242;48.158;-1.586;2022-12-10T17:41:31;3.30;77.40
61374;DHT22;47242;48.158;-1.586;2022-12-10T17:43:57;3.30;77.30
61374;DHT22;47242;48.158;-1.586;2022-12-10T17:46:24;3.30;77.20
61374;DHT22;47242;48.158;-1.586;2022-12-10T17:48:50;3.30;77.10
61374;DHT22;47242;48.158;-1.586;2022-12-10T17:51:16;3.20;77.20
61374;DHT22;47242;48.158;-1.586;2022-12-10T17:53:42;3.20;77.40
61374;DHT22;47242;48.158;-1.586;2022-12-10T17:56:15;3.20;77.40
61374;DHT22;47242;48.158;-1.586;2022-12-10T17:58:42;3.20;77.00
61374;DHT22;47242;48.158;-1.586;2022-12-10T18:01:08;3.10;77.00
61374;DHT22;47242;48.158;-1.586;2022-12-10T18:03:38;3.10;77.00
61374;DHT22;47242;48.158;-1.586;2022-12-10T18:08:59;3.00;76.80
61374;DHT22;47242;48.158;-1.586;2022-12-10T18:11:30;3.00;76.80
61374;DHT22;47242;48.158;-1.586;2022-12-10T18:13:55;2.90;76.70
61374;DHT22;47242;48.158;-1.586;2022-12-10T18:16:25;2.90;78.00
61374;DHT22;47242;48.158;-1.586;2022-12-10T18:18:56;2.90;78.20
61374;DHT22;47242;48.158;-1.586;2022-12-10T18:21:22;2.90;78.30
61374;DHT22;47242;48.158;-1.586;2022-12-10T18:23:50;2.90;78.30
61374;DHT22;47242;48.158;-1.586;2022-12-10T18:26:20;2.90;78.40
61374;DHT22;47242;48.158;-1.586;2022-12-10T18:31:17;2.90;77.90
61374;DHT22;47242;48.158;-1.586;2022-12-10T18:33:47;2.90;77.50
61374;DHT22;47242;48.158;-1.586;2022-12-10T18:36:24;2.90;77.30
61374;DHT22;47242;48.158;-1.586;2022-12-10T18:38:52;2.80;77.10
61374;DHT22;47242;48.158;-1.586;2022-12-10T18:41:19;2.80;77.20
61374;DHT22;47242;48.158;-1.586;2022-12-10T18:43:44;2.70;77.10
61374;DHT22;47242;48.158;-1.586;2022-12-10T18:46:13;2.70;77.80
61374;DHT22;47242;48.158;-1.586;2022-12-10T18:48:41;2.60;78.50
61374;DHT22;47242;48.158;-1.586;2022-12-10T18:51:07;2.60;78.70
61374;DHT22;47242;48.158;-1.586;2022-12-10T18:53:33;2.60;78.70
61374;DHT22;47242;48.158;-1.586;2022-12-10T18:55:58;2.60;78.60
61374;DHT22;47242;48.158;-1.586;2022-12-10T18:58:24;2.70;78.50
61374;DHT22;47242;48.158;-1.586;2022-12-10T19:00:50;2.60;78.40
61374;DHT22;47242;48.158;-1.586;2022-12-10T19:03:20;2.60;78.30
61374;DHT22;47242;48.158;-1.586;2022-12-10T19:05:46;2.70;78.10
61374;DHT22;47242;48.158;-1.586;2022-12-10T19:08:11;2.70;78.10
61374;DHT22;47242;48.158;-1.586;2022-12-10T19:10:38;2.70;78.00
61374;DHT22;47242;48.158;-1.586;2022-12-10T19:13:03;2.60;77.90
61374;DHT22;47242;48.158;-1.586;2022-12-10T19:15:29;2.60;77.80
61374;DHT22;47242;48.158;-1.586;2022-12-10T19:17:55;2.60;77.70
61374;DHT22;47242;48.158;-1.586;2022-12-10T19:20:38;2.60;77.70
61374;DHT22;47242;48.158;-1.586;2022-12-10T19:23:03;2.60;77.60
61374;DHT22;47242;48.158;-1.586;2022-12-10T19:25:29;2.50;77.50
61374;DHT22;47242;48.158;-1.586;2022-12-10T19:27:55;2.50;77.60
61374;DHT22;47242;48.158;-1.586;2022-12-10T19:30:23;2.50;77.50
61374;DHT22;47242;48.158;-1.586;2022-12-10T19:32:49;2.50;77.50
61374;DHT22;47242;48.158;-1.586;2022-12-10T19:35:18;2.40;77.40
61374;DHT22;47242;48.158;-1.586;2022-12-10T19:37:45;2.40;77.60
61374;DHT22;47242;48.158;-1.586;2022-12-10T19:42:43;2.40;77.30
61374;DHT22;47242;48.158;-1.586;2022-12-10T19:45:09;2.40;77.30
61374;DHT22;47242;48.158;-1.586;2022-12-10T19:47:34;2.30;77.30
61374;DHT22;47242;48.158;-1.586;2022-12-10T19:50:00;2.30;77.40
61374;DHT22;47242;48.158;-1.586;2022-12-10T19:52:25;2.30;77.30
61374;DHT22;47242;48.158;-1.586;2022-12-10T19:54:54;2.30;77.20
61374;DHT22;47242;48.158;-1.586;2022-12-10T19:57:22;2.30;77.40
61374;DHT22;47242;48.158;-1.586;2022-12-10T19:59:48;2.20;77.50
61374;DHT22;47242;48.158;-1.586;2022-12-10T20:02:14;2.20;77.60
61374;DHT22;47242;48.158;-1.586;2022-12-10T20:04:39;2.20;77.40
61374;DHT22;47242;48.158;-1.586;2022-12-10T20:07:05;2.20;77.50
61374;DHT22;47242;48.158;-1.586;2022-12-10T20:09:31;2.20;77.30
61374;DHT22;47242;48.158;-1.586;2022-12-10T20:11:57;2.20;77.30
61374;DHT22;47242;48.158;-1.586;2022-12-10T20:14:23;2.20;77.30
61374;DHT22;47242;48.158;-1.586;2022-12-10T20:16:50;2.10;77.50
61374;DHT22;47242;48.158;-1.586;2022-12-10T20:19:18;2.00;77.30
61374;DHT22;47242;48.158;-1.586;2022-12-10T20:21:45;2.00;77.30
61374;DHT22;47242;48.158;-1.586;2022-12-10T20:24:11;1.90;77.40
61374;DHT22;47242;48.158;-1.586;2022-12-10T20:26:43;1.90;77.60
61374;DHT22;47242;48.158;-1.586;2022-12-10T20:29:18;1.90;77.70
61374;DHT22;47242;48.158;-1.586;2022-12-10T20:31:46;1.80;77.90
61374;DHT22;47242;48.158;-1.586;2022-12-10T20:34:12;1.80;77.90
61374;DHT22;47242;48.158;-1.586;2022-12-10T20:36:39;1.80;78.10
61374;DHT22;47242;48.158;-1.586;2022-12-10T20:39:05;1.80;77.80
61374;DHT22;47242;48.158;-1.586;2022-12-10T20:41:34;1.80;77.60
61374;DHT22;47242;48.158;-1.586;2022-12-10T20:44:00;1.80;77.60
61374;DHT22;47242;48.158;-1.586;2022-12-10T20:46:31;1.90;77.60
61374;DHT22;47242;48.158;-1.586;2022-12-10T20:48:57;1.90;77.30
61374;DHT22;47242;48.158;-1.586;2022-12-10T20:51:41;1.90;77.40
61374;DHT22;47242;48.158;-1.586;2022-12-10T20:54:10;1.80;77.40
61374;DHT22;47242;48.158;-1.586;2022-12-10T20:56:36;1.80;77.50
61374;DHT22;47242;48.158;-1.586;2022-12-10T20:59:03;1.70;77.60
61374;DHT22;47242;48.158;-1.586;2022-12-10T21:01:30;1.70;77.70
61374;DHT22;47242;48.158;-1.586;2022-12-10T21:03:56;1.70;77.70
61374;DHT22;47242;48.158;-1.586;2022-12-10T21:06:28;1.70;77.70
61374;DHT22;47242;48.158;-1.586;2022-12-10T21:08:57;1.70;77.70
61374;DHT22;47242;48.158;-1.586;2022-12-10T21:11:24;1.70;77.80
61374;DHT22;47242;48.158;-1.586;2022-12-10T21:13:49;1.70;77.60
61374;DHT22;47242;48.158;-1.586;2022-12-10T21:16:18;1.70;77.40
61374;DHT22;47242;48.158;-1.586;2022-12-10T21:18:45;1.70;77.50
61374;DHT22;47242;48.158;-1.586;2022-12-10T21:21:12;1.70;77.40
61374;DHT22;47242;48.158;-1.586;2022-12-10T21:23:38;1.70;77.50
61374;DHT22;47242;48.158;-1.586;2022-12-10T21:26:08;1.70;77.40
61374;DHT22;47242;48.158;-1.586;2022-12-10T21:28:36;1.70;77.40
61374;DHT22;47242;48.158;-1.586;2022-12-10T21:31:02;1.70;77.20
61374;DHT22;47242;48.158;-1.586;2022-12-10T21:33:28;1.70;77.30
61374;DHT22;47242;48.158;-1.586;2022-12-10T21:35:54;1.70;77.20
61374;DHT22;47242;48.158;-1.586;2022-12-10T21:38:21;1.70;77.30
61374;DHT22;47242;48.158;-1.586;2022-12-10T21:40:47;1.70;77.20
61374;DHT22;47242;48.158;-1.586;2022-12-10T21:43:21;1.70;77.30
61374;DHT22;47242;48.158;-1.586;2022-12-10T21:45:53;1.70;77.00
61374;DHT22;47242;48.158;-1.586;2022-12-10T21:48:25;1.70;77.00
61374;DHT22;47242;48.158;-1.586;2022-12-10T21:51:01;1.70;76.80
61374;DHT22;47242;48.158;-1.586;2022-12-10T21:53:28;1.70;77.00
61374;DHT22;47242;48.158;-1.586;2022-12-10T21:55:54;1.60;77.00
61374;DHT22;47242;48.158;-1.586;2022-12-10T21:58:19;1.60;77.20
61374;DHT22;47242;48.158;-1.586;2022-12-10T22:00:45;1.50;77.20
61374;DHT22;47242;48.158;-1.586;2022-12-10T22:03:11;1.50;77.30
61374;DHT22;47242;48.158;-1.586;2022-12-10T22:05:43;1.50;77.30
61374;DHT22;47242;48.158;-1.586;2022-12-10T22:08:09;1.50;77.40
61374;DHT22;47242;48.158;-1.586;2022-12-10T22:10:36;1.50;77.40
61374;DHT22;47242;48.158;-1.586;2022-12-10T22:13:01;1.40;77.50
61374;DHT22;47242;48.158;-1.586;2022-12-10T22:15:27;1.30;77.60
61374;DHT22;47242;48.158;-1.586;2022-12-10T22:17:53;1.30;77.90
61374;DHT22;47242;48.158;-1.586;2022-12-10T22:20:18;1.20;78.10
61374;DHT22;47242;48.158;-1.586;2022-12-10T22:22:47;1.20;78.20
61374;DHT22;47242;48.158;-1.586;2022-12-10T22:25:13;1.20;78.20
61374;DHT22;47242;48.158;-1.586;2022-12-10T22:27:38;1.20;78.20
